Bukit Panjang, Singapore
Current Conditions -  °F | °C
As of 3:00 PM on Saturday 25 Oct 2014 (Local Time) from WSSL Reporting Station
Broken Clouds Broken Clouds  
Wind Chill: 91°   Ceiling: 30000
Heat Index: 94°   Visibility: 6mi
Dew Point: 66°   Wind: 7mph
Humidity: 43%   Direction: 170°S
Pressure: 29.8"   Gusts: NA
Location:  1.39°N, 103.78°E
Report Text: WSSL 250700Z 17006KT 110V210 9999 FEW018 BKN300 33/19 Q1009 RMK0630Z Q1009
Loading
Personal Weather Stations






























Interactive Weather Map
Tropical Storm Tracking
New forecast layout! Learn more

10-Day Weather Forecast

Advertisements
Track Severe Weather on mobile